createdAt,value
2018-05-04T00:00:15.222Z,0
2018-05-04T00:10:14.510Z,0
2018-05-04T00:20:14.643Z,0
2018-05-04T00:30:14.519Z,0
2018-05-04T00:40:14.610Z,0
2018-05-04T00:50:15.394Z,0
2018-05-04T01:00:14.593Z,0
2018-05-04T01:10:14.574Z,0
2018-05-04T01:20:14.644Z,0
2018-05-04T01:30:14.536Z,0
2018-05-04T01:40:14.619Z,0
2018-05-04T01:50:15.082Z,0
2018-05-04T02:00:14.544Z,0
2018-05-04T02:10:14.626Z,0
2018-05-04T02:20:14.614Z,0
2018-05-04T02:30:15.536Z,0
2018-05-04T02:40:14.597Z,0
2018-05-04T02:50:14.653Z,0
2018-05-04T03:00:14.626Z,0
2018-05-04T03:10:14.721Z,0
2018-05-04T03:20:14.675Z,0
2018-05-04T03:30:14.745Z,0
2018-05-04T03:40:16.104Z,0
2018-05-04T03:50:14.751Z,0
2018-05-04T04:00:14.695Z,5
2018-05-04T04:10:14.631Z,15
2018-05-04T04:20:15.506Z,25
2018-05-04T04:30:14.671Z,35
2018-05-04T04:40:14.736Z,45
2018-05-04T04:50:14.685Z,55
2018-05-04T05:00:15.444Z,60
2018-05-04T05:10:14.793Z,70
2018-05-04T05:20:14.828Z,80
2018-05-04T05:30:14.827Z,85
2018-05-04T05:40:14.825Z,85
2018-05-04T05:50:15.616Z,90
2018-05-04T06:00:14.859Z,95
2018-05-04T06:10:14.834Z,100
2018-05-04T06:20:14.761Z,105
2018-05-04T06:30:14.916Z,115
2018-05-04T06:40:14.790Z,125
2018-05-04T06:50:14.839Z,165
2018-05-04T07:00:14.813Z,245
2018-05-04T07:10:16.394Z,300
2018-05-04T07:20:14.845Z,315
2018-05-04T07:30:14.936Z,320
2018-05-04T07:40:14.845Z,330
2018-05-04T07:50:14.890Z,335
2018-05-04T08:00:14.824Z,335
2018-05-04T08:10:14.796Z,335
2018-05-04T08:20:14.819Z,330
2018-05-04T08:30:14.835Z,310
2018-05-04T08:40:14.787Z,285
2018-05-04T08:50:14.856Z,145
2018-05-04T09:00:14.809Z,125
2018-05-04T09:10:14.830Z,120
2018-05-04T09:20:15.089Z,120
2018-05-04T09:30:15.074Z,125
2018-05-04T09:40:15.048Z,125
2018-05-04T09:50:15.705Z,125
2018-05-04T10:00:14.885Z,125
2018-05-04T10:10:14.903Z,125
2018-05-04T10:20:14.884Z,125
2018-05-04T10:30:15.883Z,125
2018-05-04T10:40:14.813Z,125
2018-05-04T10:50:14.915Z,120
2018-05-04T11:00:14.889Z,120
2018-05-04T11:10:15.022Z,120
2018-05-04T11:20:14.869Z,120
2018-05-04T11:30:14.897Z,120
2018-05-04T11:40:15.138Z,115
2018-05-04T11:50:15.101Z,115
2018-05-04T12:00:14.946Z,115
2018-05-04T12:10:14.833Z,115
2018-05-04T12:20:14.853Z,115
2018-05-04T12:30:14.896Z,115
2018-05-04T12:40:14.911Z,115
2018-05-04T12:50:14.878Z,115
2018-05-04T13:00:16.207Z,115
2018-05-04T13:10:15.092Z,115
2018-05-04T13:20:14.856Z,115
2018-05-04T13:30:15.043Z,115
2018-05-04T13:40:14.846Z,110
2018-05-04T13:50:15.008Z,115
2018-05-04T14:00:15.084Z,110
2018-05-04T14:10:14.950Z,110
2018-05-04T14:20:14.981Z,110
2018-05-04T14:30:16.353Z,110
2018-05-04T14:40:14.915Z,110
2018-05-04T14:50:14.925Z,105
2018-05-04T15:00:14.958Z,105
2018-05-04T15:10:14.816Z,105
2018-05-04T15:20:15.107Z,100
2018-05-04T15:30:14.887Z,100
2018-05-04T15:40:15.895Z,100
2018-05-04T15:50:15.719Z,100
2018-05-04T16:00:14.882Z,95
2018-05-04T16:10:14.904Z,95
2018-05-04T16:20:15.849Z,90
2018-05-04T16:30:15.718Z,85
2018-05-04T16:40:14.931Z,80
2018-05-04T16:50:14.831Z,75
2018-05-04T17:00:14.855Z,75
2018-05-04T17:10:14.956Z,70
2018-05-04T17:20:14.892Z,65
2018-05-04T17:30:15.636Z,60
2018-05-04T17:40:16.654Z,55
2018-05-04T17:50:15.313Z,50
2018-05-04T18:00:14.953Z,40
2018-05-04T18:10:14.978Z,35
2018-05-04T18:20:14.977Z,30
2018-05-04T18:30:15.782Z,20
2018-05-04T18:40:14.874Z,15
2018-05-04T18:50:14.862Z,5
2018-05-04T19:00:14.878Z,0
2018-05-04T19:10:14.869Z,0
2018-05-04T19:20:15.715Z,0
2018-05-04T19:30:15.542Z,0
2018-05-04T19:40:14.902Z,0
2018-05-04T19:50:14.945Z,0
2018-05-04T20:00:14.850Z,0
2018-05-04T20:10:15.112Z,0
2018-05-04T20:20:15.015Z,0
2018-05-04T20:30:15.256Z,0
2018-05-04T20:40:15.548Z,0
2018-05-04T20:50:15.950Z,0
2018-05-04T21:00:16.269Z,0
2018-05-04T21:10:16.072Z,0
2018-05-04T21:20:15.320Z,0
2018-05-04T21:30:17.368Z,0
2018-05-04T21:40:15.994Z,0
2018-05-04T21:50:15.085Z,0
2018-05-04T22:00:15.425Z,0
2018-05-04T22:10:15.020Z,0
2018-05-04T22:20:15.020Z,0
2018-05-04T22:30:15.885Z,0
2018-05-04T22:40:15.071Z,0
2018-05-04T22:50:14.945Z,0
2018-05-04T23:00:15.738Z,0
2018-05-04T23:10:15.879Z,0
2018-05-04T23:20:15.023Z,0
2018-05-04T23:30:14.935Z,0
2018-05-04T23:40:14.943Z,0
2018-05-04T23:50:15.864Z,0
